Time;durP1;ratioP1;P1;durP2;ratioP2;P2;SDS_P1;SDS_P2;PMS_P1;PMS_P2;Temp;Humidity;BMP_temperature;BMP_pressure;BME280_temperature;BME280_humidity;BME280_pressure;Samples;Min_cycle;Max_cycle;Signal;HPM_P1;HPM_P2
2021/09/15 00:02:19;;;;;;;3.00;1.02;;;;;;;19.49;29.23;98565.34;5028722;28;20055;-83
2021/09/15 00:04:45;;;;;;;3.40;0.98;;;;;;;19.50;28.91;98563.44;5029268;28;20056;-83
2021/09/15 00:07:14;;;;;;;0.63;0.63;;;;;;;19.52;28.84;98566.72;5029966;28;20049;-84
2021/09/15 00:09:41;;;;;;;3.63;2.15;;;;;;;19.62;28.54;98578.50;5046606;28;20066;-83
2021/09/15 00:12:07;;;;;;;5.57;1.67;;;;;;;19.66;28.60;98566.22;5028001;28;20076;-83
2021/09/15 00:14:33;;;;;;;1.52;1.00;;;;;;;19.65;28.68;98561.84;5028168;28;20500;-83
2021/09/15 00:16:59;;;;;;;3.60;1.00;;;;;;;19.68;28.65;98566.75;5059334;28;20043;-83
2021/09/15 00:19:25;;;;;;;3.20;1.00;;;;;;;19.67;28.53;98575.09;5012827;28;20052;-82
2021/09/15 00:21:51;;;;;;;2.20;0.95;;;;;;;19.77;28.55;98572.59;5026454;28;20055;-83
2021/09/15 00:24:18;;;;;;;4.78;1.05;;;;;;;19.71;28.49;98568.97;5043823;28;20090;-84
2021/09/15 00:26:43;;;;;;;5.80;0.90;;;;;;;19.76;28.54;98570.94;5029303;28;20044;-83
2021/09/15 00:29:10;;;;;;;1.23;0.80;;;;;;;19.74;28.73;98568.47;5026458;28;20081;-80
2021/09/15 00:31:37;;;;;;;4.03;1.00;;;;;;;19.77;28.62;98565.31;5022886;28;20499;-79
2021/09/15 00:34:03;;;;;;;1.73;0.80;;;;;;;19.50;29.13;98566.13;5056210;28;20056;-79
2021/09/15 00:36:29;;;;;;;7.63;1.02;;;;;;;19.47;29.19;98570.16;5060132;28;20046;-80
2021/09/15 00:38:55;;;;;;;3.85;0.98;;;;;;;19.39;29.34;98569.72;5055998;28;20052;-79
2021/09/15 00:41:21;;;;;;;2.90;1.15;;;;;;;19.35;29.09;98577.47;5064065;28;20059;-80
2021/09/15 00:44:01;;;;;;;3.42;0.73;;;;;;;20.02;28.91;98581.91;5057463;28;20048;-82
2021/09/15 00:46:28;;;;;;;;;;;;;;;20.07;28.34;98586.59;5061698;28;20043;-76
2021/09/15 00:48:54;;;;;;;1.70;0.98;;;;;;;19.60;28.90;98571.72;5059848;28;20272;-82
2021/09/15 00:51:20;;;;;;;3.75;0.85;;;;;;;19.48;29.41;98568.28;5061568;28;20040;-82
2021/09/15 00:53:48;;;;;;;7.00;1.10;;;;;;;19.52;29.23;98570.25;5064066;28;20075;-84
2021/09/15 00:56:15;;;;;;;1.10;0.70;;;;;;;19.62;28.86;98572.31;5047426;28;20056;-82
2021/09/15 00:58:41;;;;;;;1.80;0.80;;;;;;;19.63;29.18;98579.34;5043301;28;20176;-79
2021/09/15 01:01:09;;;;;;;1.50;0.93;;;;;;;19.61;29.08;98578.75;5041015;28;20048;-79
2021/09/15 01:03:35;;;;;;;3.45;1.27;;;;;;;19.65;29.59;98579.91;5040492;28;20075;-78
2021/09/15 01:06:02;;;;;;;2.97;0.90;;;;;;;19.62;29.28;98589.28;5056396;28;20048;-79
2021/09/15 01:08:31;;;;;;;4.30;0.90;;;;;;;19.66;29.23;98570.75;5057619;28;20075;-76
2021/09/15 01:10:58;;;;;;;2.38;1.00;;;;;;;19.91;29.02;98590.88;5057415;28;20047;-79
2021/09/15 01:13:31;;;;;;;1.48;0.80;;;;;;;19.77;29.06;98581.47;5057705;28;20047;-76
2021/09/15 01:16:15;;;;;;;2.63;0.93;;;;;;;19.71;29.08;98582.44;5059146;28;20048;-78
2021/09/15 01:19:00;;;;;;;3.13;0.93;;;;;;;19.76;29.23;98582.53;5062557;28;20054;-76
2021/09/15 01:21:25;;;;;;;3.95;0.88;;;;;;;19.76;29.00;98601.41;5073499;28;20040;-78
2021/09/15 01:24:26;;;;;;;5.47;0.98;;;;;;;19.92;28.98;98589.03;5052884;28;20051;-78
2021/09/15 01:27:22;;;;;;;3.72;1.10;;;;;;;19.78;29.04;98588.50;5041067;28;20053;-78
2021/09/15 01:30:06;;;;;;;2.80;1.08;;;;;;;19.78;29.10;98591.22;5061755;28;20442;-78
2021/09/15 01:32:33;;;;;;;1.38;0.80;;;;;;;19.63;29.21;98588.25;5056520;28;20063;-77
2021/09/15 01:34:59;;;;;;;5.40;0.90;;;;;;;19.58;29.57;98587.31;5040218;28;20054;-78
2021/09/15 01:37:29;;;;;;;2.72;0.95;;;;;;;19.44;29.76;98583.25;5041727;28;20130;-80
2021/09/15 01:39:56;;;;;;;3.80;0.90;;;;;;;19.58;29.44;98592.69;5024441;28;20131;-80
2021/09/15 01:42:25;;;;;;;3.60;0.80;;;;;;;19.70;29.53;98594.28;5041200;28;20159;-80
2021/09/15 01:44:52;;;;;;;1.77;0.80;;;;;;;19.68;29.26;98592.91;5040900;28;20555;-81
2021/09/15 01:47:21;;;;;;;4.53;0.95;;;;;;;19.72;29.47;98594.88;5042709;28;20040;-79
2021/09/15 01:49:47;;;;;;;4.43;0.82;;;;;;;19.69;29.39;98594.53;5024370;28;20426;-82
2021/09/15 01:52:15;;;;;;;2.35;0.90;;;;;;;19.85;29.60;98599.94;5040285;28;20048;-79
2021/09/15 01:54:42;;;;;;;4.22;0.80;;;;;;;19.81;29.55;98596.13;5039825;28;20044;-78
2021/09/15 01:57:09;;;;;;;1.05;0.80;;;;;;;19.81;29.31;98593.41;5039747;28;20072;-79
2021/09/15 01:59:53;;;;;;;2.38;0.80;;;;;;;19.73;29.41;98590.28;5061505;28;20044;-79
2021/09/15 02:02:49;;;;;;;7.63;1.00;;;;;;;20.01;29.17;98599.16;5064563;28;20043;-79
2021/09/15 02:05:28;;;;;;;1.58;0.90;;;;;;;19.71;29.51;98595.13;5075100;28;20138;-82
2021/09/15 02:08:14;;;;;;;3.38;0.73;;;;;;;19.79;29.35;98600.09;5061252;28;20044;-79
2021/09/15 02:10:58;;;;;;;1.10;0.80;;;;;;;19.92;29.24;98597.09;5044069;28;20079;-81
2021/09/15 02:13:27;;;;;;;4.33;0.90;;;;;;;19.88;29.46;98609.44;5058430;28;20426;-82
2021/09/15 02:15:54;;;;;;;5.68;1.08;;;;;;;19.85;29.60;98599.16;5043768;28;20075;-82
2021/09/15 02:18:20;;;;;;;1.15;0.70;;;;;;;19.66;29.80;98600.41;5044594;28;20058;-78
2021/09/15 02:21:13;;;;;;;4.25;0.93;;;;;;;19.84;29.53;98602.88;5068401;28;20070;-79
2021/09/15 02:24:16;;;;;;;5.88;0.90;;;;;;;19.98;29.09;98606.91;5072565;28;20048;-82
2021/09/15 02:26:59;;;;;;;1.95;0.98;;;;;;;19.91;29.55;98598.97;5065264;28;20044;-81
2021/09/15 02:29:25;;;;;;;3.08;0.85;;;;;;;19.90;29.42;98596.53;5045756;28;20101;-82
2021/09/15 02:32:18;;;;;;;1.35;0.80;;;;;;;20.27;29.49;98611.22;5062890;28;20051;-82
2021/09/15 02:35:04;;;;;;;2.80;0.80;;;;;;;19.98;29.32;98607.75;5097101;28;20047;-80
2021/09/15 02:37:50;;;;;;;3.17;1.00;;;;;;;19.81;29.64;98614.97;5065988;28;20073;-78
2021/09/15 02:40:35;;;;;;;1.60;0.70;;;;;;;19.84;29.81;98610.97;5065542;28;20055;-76
2021/09/15 02:43:21;;;;;;;4.93;1.58;;;;;;;19.86;29.65;98616.94;5048784;28;20055;-79
2021/09/15 02:46:03;;;;;;;3.85;1.00;;;;;;;19.84;29.85;98614.50;5047974;28;20116;-80
2021/09/15 02:48:49;;;;;;;2.47;0.90;;;;;;;19.89;29.86;98616.44;5065475;28;20500;-81
2021/09/15 02:51:21;;;;;;;7.53;1.08;;;;;;;20.00;29.79;98618.28;5061627;28;20059;-81
2021/09/15 02:54:05;;;;;;;6.72;0.88;;;;;;;19.94;29.71;98624.63;5042324;28;20044;-82
2021/09/15 02:56:44;;;;;;;1.85;1.10;;;;;;;19.84;29.90;98621.75;5043338;28;20043;-83
2021/09/15 02:59:31;;;;;;;2.78;1.10;;;;;;;20.00;30.00;98627.16;5039390;28;20040;-82
2021/09/15 03:02:11;;;;;;;4.40;1.00;;;;;;;19.95;29.83;98631.66;5034906;28;20063;-84
2021/09/15 03:04:53;;;;;;;3.45;1.00;;;;;;;19.91;29.70;98628.63;5054506;28;20127;-82
2021/09/15 03:07:33;;;;;;;2.08;0.90;;;;;;;20.03;29.58;98633.97;5053566;28;20093;-80
2021/09/15 03:10:00;;;;;;;4.35;0.90;;;;;;;19.93;29.74;98634.59;5030336;28;20048;-82
2021/09/15 03:12:27;;;;;;;1.88;0.90;;;;;;;20.06;29.78;98630.78;5047246;28;20055;-82
2021/09/15 03:14:53;;;;;;;4.07;0.98;;;;;;;20.01;29.89;98633.38;5030066;28;20534;-78
2021/09/15 03:17:22;;;;;;;2.97;1.10;;;;;;;20.22;29.83;98626.50;5036330;28;20423;-80
2021/09/15 03:19:48;;;;;;;2.78;1.00;;;;;;;19.84;30.17;98636.03;5075353;28;20519;-81
2021/09/15 03:22:14;;;;;;;3.90;0.90;;;;;;;19.69;30.58;98626.84;5042264;28;20125;-79
2021/09/15 03:24:41;;;;;;;3.10;1.00;;;;;;;19.87;29.95;98623.94;5059498;28;20040;-79
2021/09/15 03:27:07;;;;;;;4.10;1.00;;;;;;;19.77;30.32;98626.47;5042706;28;20522;-79
2021/09/15 03:29:36;;;;;;;4.05;1.00;;;;;;;19.81;30.25;98631.13;5042672;28;20040;-80
2021/09/15 03:32:04;;;;;;;2.88;1.30;;;;;;;19.92;30.50;98627.56;5044484;28;20040;-83
2021/09/15 03:34:30;;;;;;;4.43;0.85;;;;;;;19.94;30.05;98622.75;5059989;28;20036;-83
2021/09/15 03:36:57;;;;;;;1.05;0.82;;;;;;;19.93;30.11;98634.59;5044791;28;20159;-82
2021/09/15 03:39:23;;;;;;;1.13;0.80;;;;;;;20.00;30.25;98634.44;5096096;28;20433;-82
2021/09/15 03:41:49;;;;;;;3.05;1.00;;;;;;;20.04;29.88;98639.13;5046274;28;20075;-77
2021/09/15 03:44:19;;;;;;;5.50;1.10;;;;;;;20.02;30.09;98635.84;5057773;28;20149;-77
2021/09/15 03:46:44;;;;;;;4.40;0.90;;;;;;;19.90;30.23;98643.16;5056119;28;20515;-79
2021/09/15 03:49:11;;;;;;;4.68;0.85;;;;;;;20.02;30.18;98638.53;5041901;28;20039;-76
2021/09/15 03:51:37;;;;;;;3.58;0.80;;;;;;;20.11;29.88;98647.84;5042083;28;20046;-75
2021/09/15 03:54:03;;;;;;;1.00;0.90;;;;;;;20.09;29.92;98644.59;5042310;28;20659;-79
2021/09/15 03:56:30;;;;;;;3.08;0.75;;;;;;;20.01;30.02;98646.84;5041953;28;20097;-83
2021/09/15 03:58:56;;;;;;;3.03;0.95;;;;;;;20.18;29.74;98655.00;5041443;28;20052;-68
2021/09/15 04:01:22;;;;;;;5.15;0.90;;;;;;;19.99;29.95;98628.22;5041296;28;20078;-68
2021/09/15 04:03:48;;;;;;;1.92;0.93;;;;;;;20.08;30.36;98651.03;5024667;28;20061;-68
2021/09/15 04:06:15;;;;;;;4.50;0.80;;;;;;;20.29;29.80;98662.19;5058451;28;20412;-67
2021/09/15 04:08:41;;;;;;;1.45;0.95;;;;;;;20.25;30.07;98669.94;5057530;28;20044;-67
2021/09/15 04:11:07;;;;;;;2.15;0.80;;;;;;;20.14;30.17;98670.03;5041234;28;20411;-68
2021/09/15 04:13:33;;;;;;;4.57;1.00;;;;;;;20.27;30.14;98667.84;5032038;28;20103;-74
2021/09/15 04:16:03;;;;;;;4.57;0.90;;;;;;;20.26;29.87;98671.59;5030177;28;20586;-77
2021/09/15 04:18:56;;;;;;;3.90;0.90;;;;;;;20.27;30.19;98669.72;5043426;28;20093;-66
2021/09/15 04:21:22;;;;;;;4.10;0.85;;;;;;;20.09;30.45;98676.94;5017498;28;20074;-66
2021/09/15 04:31:55;;;;;;;3.28;1.00;;;;;;;20.22;30.43;98685.81;5050275;28;20048;-71
2021/09/15 04:34:22;;;;;;;3.38;0.95;;;;;;;20.17;30.48;98691.13;5035057;28;20071;-67
2021/09/15 04:36:54;;;;;;;2.78;0.80;;;;;;;20.13;30.90;98679.16;5020144;28;20048;-67
2021/09/15 04:39:21;;;;;;;1.55;0.80;;;;;;;20.14;30.63;98678.94;5010900;28;20033;-67
2021/09/15 04:41:48;;;;;;;9.02;3.50;;;;;;;20.32;30.44;98681.41;5033148;28;20420;-67
2021/09/15 04:44:16;;;;;;;5.00;1.20;;;;;;;20.23;30.03;98676.66;5036724;28;20507;-66
2021/09/15 04:46:42;;;;;;;2.53;0.98;;;;;;;20.37;30.23;98702.25;5036653;28;20049;-65
2021/09/15 04:49:09;;;;;;;5.65;1.20;;;;;;;20.35;30.16;98696.28;5019822;28;20078;-66
2021/09/15 04:51:38;;;;;;;3.92;1.08;;;;;;;20.37;30.23;98692.31;5036577;28;20051;-66
2021/09/15 04:54:04;;;;;;;4.45;1.10;;;;;;;20.38;30.26;98696.63;5020125;28;20049;-66
2021/09/15 04:56:35;;;;;;;1.65;1.00;;;;;;;20.36;30.33;98700.63;5009821;28;20060;-66
2021/09/15 04:59:01;;;;;;;3.22;0.98;;;;;;;20.35;30.35;98707.91;4997786;28;20045;-66
2021/09/15 05:01:27;;;;;;;1.80;1.08;;;;;;;20.42;30.04;98705.06;5014322;28;20452;-67
2021/09/15 05:03:53;;;;;;;4.40;1.00;;;;;;;20.25;30.25;98707.69;5016132;28;20037;-66
2021/09/15 05:06:20;;;;;;;5.18;0.95;;;;;;;20.44;30.21;98716.41;5014539;28;20574;-65
2021/09/15 05:08:46;;;;;;;3.65;1.08;;;;;;;20.49;30.11;98722.72;5031056;28;20049;-65
2021/09/15 05:11:12;;;;;;;3.67;0.98;;;;;;;20.46;29.98;98714.28;4999985;28;20102;-65
2021/09/15 05:13:38;;;;;;;5.80;0.95;;;;;;;20.55;29.98;98727.13;5016947;28;20048;-66
2021/09/15 05:16:04;;;;;;;5.50;1.48;;;;;;;20.67;29.87;98727.06;5033799;28;20049;-66
2021/09/15 05:18:30;;;;;;;5.07;1.73;;;;;;;20.72;29.68;98729.84;5033327;28;20076;-66
2021/09/15 05:20:56;;;;;;;4.20;1.10;;;;;;;20.65;29.79;98727.28;5033056;28;20059;-65
2021/09/15 05:23:23;;;;;;;4.47;1.10;;;;;;;20.66;29.62;98731.66;5000717;28;20036;-66
2021/09/15 05:25:57;;;;;;;3.50;1.08;;;;;;;20.59;30.14;98733.66;5003550;28;20121;-66
2021/09/15 05:28:24;;;;;;;3.15;1.20;;;;;;;20.60;29.94;98737.19;5017470;28;20044;-66
2021/09/15 05:30:53;;;;;;;8.07;1.30;;;;;;;20.55;29.82;98731.72;5035296;28;20424;-65
2021/09/15 05:33:22;;;;;;;4.82;1.05;;;;;;;20.54;30.06;98736.31;5020012;28;20044;-66
2021/09/15 05:35:48;;;;;;;3.50;1.00;;;;;;;20.64;30.21;98733.75;5019173;28;20048;-66
2021/09/15 05:38:14;;;;;;;5.47;1.08;;;;;;;20.54;30.14;98740.88;5035274;28;20611;-66
2021/09/15 05:40:51;;;;;;;1.55;1.10;;;;;;;20.79;29.75;98739.41;5036577;28;20053;-66
2021/09/15 05:43:17;;;;;;;5.88;1.33;;;;;;;20.89;29.60;98746.88;5051984;28;20047;-66
2021/09/15 05:45:43;;;;;;;1.70;1.00;;;;;;;20.72;29.63;98713.66;5018995;28;20465;-66
2021/09/15 05:48:09;;;;;;;2.35;1.27;;;;;;;20.86;29.54;98747.34;5035337;28;20054;-66
2021/09/15 05:50:35;;;;;;;7.20;1.10;;;;;;;20.84;29.58;98744.06;5019500;28;20123;-67
2021/09/15 05:53:01;;;;;;;8.60;1.85;;;;;;;20.97;29.39;98749.97;5023603;28;20047;-66
2021/09/15 05:55:27;;;;;;;3.35;1.23;;;;;;;21.05;29.55;98757.69;5025111;28;20044;-68
2021/09/15 05:57:54;;;;;;;3.28;1.15;;;;;;;21.20;29.39;98749.81;5041875;28;20154;-67
2021/09/15 06:00:21;;;;;;;3.88;1.20;;;;;;;21.05;29.43;98752.28;5025715;28;20036;-66
2021/09/15 06:02:48;;;;;;;5.03;1.10;;;;;;;21.19;29.64;98753.59;5009412;28;20564;-66
2021/09/15 06:05:34;;;;;;;7.13;1.25;;;;;;;21.51;29.36;98754.59;5034033;28;20055;-66
2021/09/15 06:08:01;;;;;;;6.28;1.20;;;;;;;21.44;29.31;98767.47;5041726;28;20055;-66
2021/09/15 06:10:27;;;;;;;1.73;1.00;;;;;;;21.26;28.92;98762.34;5009297;28;20129;-67
2021/09/15 06:12:53;;;;;;;1.40;1.00;;;;;;;21.15;29.46;98768.66;5041563;28;20493;-66
2021/09/15 06:15:19;;;;;;;3.15;1.20;;;;;;;21.54;29.01;98770.28;5041732;28;20478;-66
2021/09/15 06:17:49;;;;;;;2.90;1.50;;;;;;;21.74;28.72;98777.88;5025582;28;20565;-65
2021/09/15 06:20:17;;;;;;;4.55;1.95;;;;;;;21.78;28.80;98775.50;5025805;28;20103;-66
2021/09/15 06:23:03;;;;;;;4.18;0.90;;;;;;;21.49;28.82;98780.22;5047282;28;20092;-67
2021/09/15 06:25:48;;;;;;;2.60;1.23;;;;;;;21.70;28.30;98782.13;5027584;28;20097;-66
2021/09/15 06:28:14;;;;;;;4.65;1.10;;;;;;;21.76;28.48;98786.56;5008601;28;20123;-68
2021/09/15 06:30:50;;;;;;;9.25;1.30;;;;;;;22.17;28.26;98777.88;5041890;28;20044;-67
2021/09/15 06:33:18;;;;;;;2.15;0.90;;;;;;;21.81;28.22;98781.25;5025272;28;20048;-66
2021/09/15 06:35:47;;;;;;;3.65;1.10;;;;;;;22.14;28.17;98780.31;5057851;28;20051;-66
2021/09/15 06:38:14;;;;;;;2.25;1.10;;;;;;;21.93;28.38;98783.81;5058148;28;20044;-66
2021/09/15 06:40:40;;;;;;;5.57;1.10;;;;;;;22.13;27.87;98781.34;5024886;28;20048;-67
2021/09/15 06:43:06;;;;;;;1.88;1.00;;;;;;;22.04;27.82;98781.00;5042225;28;20169;-66
2021/09/15 06:45:33;;;;;;;4.75;1.05;;;;;;;21.78;28.16;98799.84;5041554;28;20041;-66
2021/09/15 06:47:58;;;;;;;2.17;1.00;;;;;;;22.04;27.63;98789.09;5008520;28;20883;-66
2021/09/15 06:50:27;;;;;;;4.20;0.88;;;;;;;22.13;27.54;98803.81;5024310;28;20052;-66
2021/09/15 06:52:53;;;;;;;4.95;1.25;;;;;;;21.97;27.65;98787.66;5041130;28;20420;-66
2021/09/15 06:55:19;;;;;;;9.50;1.10;;;;;;;22.05;27.69;98796.13;5041706;28;20044;-66
2021/09/15 06:57:46;;;;;;;8.48;1.42;;;;;;;22.06;28.10;98780.75;5008281;28;20556;-66
2021/09/15 07:00:12;;;;;;;2.55;0.80;;;;;;;22.21;27.62;98789.84;5041157;28;20063;-66
2021/09/15 07:02:38;;;;;;;3.78;0.80;;;;;;;22.22;27.73;98780.66;5041508;28;20078;-66
2021/09/15 07:05:05;;;;;;;2.72;0.77;;;;;;;22.55;27.60;98795.94;5021668;28;20097;-66
2021/09/15 07:07:31;;;;;;;2.97;1.10;;;;;;;22.56;27.31;98805.69;5021848;28;20044;-66
2021/09/15 07:09:57;;;;;;;3.28;0.98;;;;;;;22.74;27.32;98808.84;5005188;28;20036;-66
2021/09/15 07:12:23;;;;;;;6.43;1.08;;;;;;;22.74;26.98;98786.38;5005219;28;20152;-66
2021/09/15 07:14:49;;;;;;;5.72;1.35;;;;;;;23.03;26.76;98804.78;5021386;28;20048;-65
2021/09/15 07:17:15;;;;;;;3.03;1.10;;;;;;;22.90;26.48;98799.81;5054938;28;20080;-67
2021/09/15 07:19:41;;;;;;;1.67;0.98;;;;;;;22.98;26.31;98812.06;5021259;28;20041;-66
2021/09/15 07:22:07;;;;;;;6.28;0.93;;;;;;;23.04;26.31;98803.72;5021856;28;20098;-66
2021/09/15 07:24:33;;;;;;;1.95;0.90;;;;;;;22.93;26.50;98809.28;5021505;28;20045;-66
2021/09/15 07:26:58;;;;;;;3.28;1.13;;;;;;;22.76;26.92;98805.88;5021121;28;20056;-66
2021/09/15 07:29:24;;;;;;;2.13;0.77;;;;;;;22.70;26.71;98801.50;5021472;28;20522;-66
2021/09/15 07:32:06;;;;;;;2.03;0.80;;;;;;;23.00;26.11;98774.72;5037966;28;20044;-66
2021/09/15 07:34:57;;;;;;;0.80;0.60;;;;;;;22.81;26.58;98801.34;5044570;28;20048;-66
2021/09/15 07:37:23;;;;;;;20.30;12.48;;;;;;;22.88;26.50;98793.81;5054339;28;20051;-66
2021/09/15 07:39:49;;;;;;;3.78;2.15;;;;;;;22.74;26.54;98803.44;5004509;28;20032;-66
2021/09/15 07:42:15;;;;;;;4.63;2.30;;;;;;;22.80;26.26;98809.72;5037429;28;20102;-66
2021/09/15 07:44:41;;;;;;;2.35;1.50;;;;;;;22.89;26.88;98829.84;5054194;28;20044;-66
2021/09/15 07:47:07;;;;;;;4.25;1.02;;;;;;;22.80;26.25;98824.06;5021122;28;20044;-66
2021/09/15 07:49:33;;;;;;;2.88;0.90;;;;;;;22.84;26.39;98833.31;5003317;28;20051;-66
2021/09/15 07:51:59;;;;;;;6.07;1.00;;;;;;;22.80;26.51;98824.06;5040430;28;20036;-66
2021/09/15 07:54:24;;;;;;;3.70;1.10;;;;;;;22.49;26.69;98837.53;5040139;28;20084;-65
2021/09/15 07:56:51;;;;;;;6.70;1.00;;;;;;;22.36;26.77;98827.91;5073964;28;20048;-65
2021/09/15 07:59:16;;;;;;;3.40;1.67;;;;;;;22.48;26.76;98831.28;5040160;28;20040;-66
2021/09/15 08:01:42;;;;;;;3.80;0.95;;;;;;;22.48;26.53;98830.47;5040099;28;20076;-66
2021/09/15 08:04:08;;;;;;;5.43;2.20;;;;;;;22.53;26.41;98835.97;5057086;28;20036;-66
2021/09/15 08:06:34;;;;;;;9.23;3.45;;;;;;;22.24;26.63;98831.81;5039770;28;20040;-66
2021/09/15 08:09:00;;;;;;;5.80;1.70;;;;;;;22.21;26.43;98840.41;5091609;28;20040;-66
2021/09/15 08:11:25;;;;;;;3.97;1.50;;;;;;;22.21;26.51;98848.53;5057111;28;20054;-66
2021/09/15 08:13:52;;;;;;;3.28;1.15;;;;;;;22.12;26.62;98855.47;5040093;28;20069;-66
2021/09/15 08:16:18;;;;;;;3.78;1.20;;;;;;;22.06;26.86;98851.88;5056347;28;20051;-66
2021/09/15 08:18:44;;;;;;;2.35;1.08;;;;;;;22.09;26.99;98855.97;5023376;28;20040;-66
2021/09/15 08:21:10;;;;;;;3.75;1.40;;;;;;;22.13;26.75;98851.66;5056845;28;20115;-66
2021/09/15 08:23:35;;;;;;;3.92;1.05;;;;;;;21.80;27.27;98862.59;5073605;28;20090;-66
2021/09/15 08:26:01;;;;;;;2.60;0.95;;;;;;;22.00;26.81;98861.00;5057030;28;20040;-67
2021/09/15 08:28:27;;;;;;;2.00;1.00;;;;;;;22.05;26.64;98861.03;5056921;28;20048;-66
2021/09/15 08:30:53;;;;;;;3.63;0.75;;;;;;;22.05;26.54;98847.53;5073551;28;20044;-66
2021/09/15 08:33:19;;;;;;;2.45;1.00;;;;;;;22.17;26.47;98858.22;5048496;28;20078;-66
2021/09/15 08:35:47;;;;;;;6.40;1.42;;;;;;;22.63;26.14;98866.66;5092835;28;20047;-66
2021/09/15 08:38:52;;;;;;;4.32;1.65;;;;;;;22.41;26.29;98873.13;5059910;28;20134;-66
2021/09/15 08:41:19;;;;;;;5.45;1.00;;;;;;;22.42;26.42;98878.28;5064879;28;20039;-67
2021/09/15 08:43:45;;;;;;;8.23;1.38;;;;;;;21.93;26.60;98871.16;5076047;28;20453;-66
2021/09/15 08:46:13;;;;;;;2.80;1.00;;;;;;;22.28;26.69;98881.66;5059923;28;20522;-66
2021/09/15 08:48:40;;;;;;;5.15;1.20;;;;;;;21.91;27.07;98880.59;5059567;28;20051;-66
2021/09/15 08:51:13;;;;;;;2.80;1.05;;;;;;;22.14;27.11;98881.16;5061481;28;20060;-66
2021/09/15 08:53:40;;;;;;;2.08;1.17;;;;;;;22.09;27.11;98885.72;5049364;28;20044;-66
2021/09/15 08:56:07;;;;;;;9.05;1.10;;;;;;;21.81;27.16;98889.38;5029521;28;20042;-66
2021/09/15 08:58:34;;;;;;;3.75;1.20;;;;;;;21.84;27.15;98878.06;5038732;28;20063;-66
2021/09/15 09:01:12;;;;;;;3.53;1.38;;;;;;;22.17;26.79;98875.25;5072211;28;20052;-66
2021/09/15 09:03:39;;;;;;;5.55;1.35;;;;;;;22.03;26.80;98890.25;5036564;28;20102;-66
2021/09/15 09:06:12;;;;;;;2.28;1.20;;;;;;;21.92;26.95;98877.66;5037828;28;20641;-65
2021/09/15 09:08:43;;;;;;;3.97;1.13;;;;;;;21.95;27.09;98893.38;5068201;28;20036;-65
2021/09/15 09:11:10;;;;;;;5.85;1.45;;;;;;;21.96;26.68;98900.41;5036364;28;20052;-66
2021/09/15 09:13:48;;;;;;;1.27;0.98;;;;;;;22.27;25.97;98905.16;5052594;28;20516;-65
2021/09/15 09:16:14;;;;;;;3.53;0.90;;;;;;;22.03;26.15;98901.06;5019379;28;20044;-66
2021/09/15 09:19:01;;;;;;;4.25;1.00;;;;;;;22.49;25.35;98887.06;5002886;28;20138;-65
2021/09/15 09:21:28;;;;;;;2.08;1.00;;;;;;;22.41;25.74;98911.84;5018895;28;20110;-66
2021/09/15 09:23:59;;;;;;;3.97;1.00;;;;;;;22.59;25.89;98916.97;5051746;28;20036;-67
2021/09/15 09:26:53;;;;;;;2.40;1.08;;;;;;;22.95;25.35;98921.72;5034749;28;20040;-66
2021/09/15 09:29:25;;;;;;;6.32;1.20;;;;;;;22.31;25.79;98921.72;5035759;28;20044;-65
2021/09/15 09:31:58;;;;;;;3.88;1.33;;;;;;;22.68;25.45;98926.28;5052259;28;20070;-65
2021/09/15 09:34:24;;;;;;;5.95;1.20;;;;;;;22.43;25.54;98927.84;5052095;28;20053;-65
2021/09/15 09:37:00;;;;;;;5.40;1.10;;;;;;;22.77;25.27;98923.97;5034825;28;20408;-66
2021/09/15 09:39:40;;;;;;;1.45;1.02;;;;;;;22.94;24.89;98925.50;5051630;28;20052;-66
2021/09/15 09:42:27;;;;;;;6.18;1.00;;;;;;;23.00;24.81;98929.09;5052497;28;20052;-65
2021/09/15 09:45:05;;;;;;;4.53;1.10;;;;;;;23.12;24.66;98925.16;5035144;28;20044;-65
2021/09/15 09:47:32;;;;;;;2.42;1.00;;;;;;;23.12;24.12;98933.28;5019024;28;20041;-65
2021/09/15 09:49:59;;;;;;;4.07;1.10;;;;;;;22.99;24.35;98936.38;5069889;28;20044;-66
2021/09/15 09:52:25;;;;;;;6.75;1.00;;;;;;;23.14;23.70;98914.88;5052320;28;20051;-66
2021/09/15 09:55:00;;;;;;;1.27;0.90;;;;;;;23.59;23.42;98932.66;5034941;28;20424;-65
2021/09/15 09:57:29;;;;;;;7.82;0.90;;;;;;;24.08;22.59;98929.50;5035319;28;20080;-66
2021/09/15 09:59:56;;;;;;;1.02;0.63;;;;;;;23.96;22.50;98938.91;5018587;28;20049;-65
2021/09/15 10:02:22;;;;;;;3.97;0.82;;;;;;;24.20;22.13;98923.91;5051686;28;20060;-65
2021/09/15 10:04:48;;;;;;;5.03;1.33;;;;;;;24.73;21.47;98926.34;5051669;28;20412;-65
2021/09/15 10:07:15;;;;;;;2.72;1.00;;;;;;;24.68;21.42;98912.72;5035423;28;20052;-65
2021/09/15 10:09:42;;;;;;;3.97;0.80;;;;;;;24.92;21.09;98913.91;5051822;28;20147;-65
2021/09/15 10:12:09;;;;;;;2.75;0.98;;;;;;;25.35;20.22;98926.25;5019060;28;20041;-66
2021/09/15 10:14:36;;;;;;;2.25;0.82;;;;;;;25.49;20.64;98930.88;5035412;28;20040;-66
2021/09/15 10:17:06;;;;;;;3.22;0.80;;;;;;;25.58;20.07;98921.09;5051647;28;20089;-65
2021/09/15 10:19:38;;;;;;;1.57;1.00;;;;;;;25.42;20.23;98937.66;5019132;28;20049;-65
2021/09/15 10:22:05;;;;;;;5.07;0.90;;;;;;;24.83;21.30;98935.34;5027983;28;20282;-66
2021/09/15 10:25:00;;;;;;;2.72;0.93;;;;;;;24.78;21.08;98934.50;5051454;28;20040;-66
2021/09/15 10:27:28;;;;;;;3.90;0.80;;;;;;;24.67;21.70;98939.09;5034327;28;20048;-66
2021/09/15 10:30:08;;;;;;;3.30;0.80;;;;;;;25.25;20.56;98920.78;5034842;28;20048;-66
2021/09/15 10:32:36;;;;;;;1.20;0.80;;;;;;;25.43;20.49;98933.88;5069057;28;20446;-65
2021/09/15 10:35:07;;;;;;;2.55;0.90;;;;;;;25.86;20.01;98938.78;5034438;28;20102;-66
2021/09/15 10:37:32;;;;;;;1.17;0.77;;;;;;;25.82;19.82;98933.06;5034755;28;20045;-66
2021/09/15 10:40:05;;;;;;;1.10;0.80;;;;;;;26.28;19.35;98939.25;5037889;28;20051;-66
2021/09/15 10:42:34;;;;;;;3.70;0.93;;;;;;;26.34;19.58;98954.50;5054616;28;20079;-66
2021/09/15 10:45:09;;;;;;;5.18;0.85;;;;;;;26.48;19.15;98954.75;5072546;28;20036;-66
2021/09/15 10:47:39;;;;;;;3.05;1.00;;;;;;;26.27;19.21;98952.06;5039347;28;20040;-66
2021/09/15 10:50:07;;;;;;;3.92;1.10;;;;;;;25.57;19.98;98943.94;5021750;28;20041;-66
2021/09/15 10:52:43;;;;;;;2.33;1.10;;;;;;;25.31;20.09;98953.13;5038137;28;20044;-66
2021/09/15 10:55:23;;;;;;;1.55;0.80;;;;;;;25.48;20.26;98958.34;5054600;28;20049;-66
2021/09/15 10:57:51;;;;;;;4.78;0.93;;;;;;;25.46;20.20;98960.53;5038111;28;20071;-66
2021/09/15 11:00:16;;;;;;;4.95;0.90;;;;;;;25.39;20.25;98962.66;5037686;28;20134;-66
2021/09/15 11:02:48;;;;;;;3.28;1.00;;;;;;;25.58;19.95;98969.22;5053986;28;20765;-67
2021/09/15 11:05:26;;;;;;;3.20;0.88;;;;;;;25.74;19.76;98963.50;5071962;28;20389;-66
2021/09/15 11:07:57;;;;;;;5.20;1.20;;;;;;;25.85;19.69;98967.03;5021160;28;20047;-68
2021/09/15 11:10:34;;;;;;;3.42;0.90;;;;;;;26.61;18.34;98968.59;5037823;28;20044;-66
2021/09/15 11:13:10;;;;;;;3.97;0.80;;;;;;;27.40;17.48;98966.59;5054364;28;20047;-66
2021/09/15 11:15:48;;;;;;;2.67;0.93;;;;;;;27.50;17.69;98957.53;5054399;28;20143;-66
2021/09/15 11:18:25;;;;;;;1.77;0.80;;;;;;;27.51;17.72;98962.72;5054381;28;20131;-66
2021/09/15 11:21:02;;;;;;;2.63;1.10;;;;;;;28.91;16.38;98971.47;5070558;28;20048;-66
2021/09/15 11:23:29;;;;;;;1.65;1.10;;;;;;;30.52;14.68;98955.25;5054823;28;20048;-66
2021/09/15 11:25:56;;;;;;;3.47;0.90;;;;;;;31.70;13.43;98963.13;5037900;28;20504;-66
2021/09/15 11:28:23;;;;;;;2.22;0.90;;;;;;;32.25;12.96;98966.41;5055042;28;20144;-66
2021/09/15 11:30:52;;;;;;;4.40;0.90;;;;;;;32.50;12.60;98954.75;5054763;28;20520;-66
2021/09/15 11:33:29;;;;;;;1.27;0.70;;;;;;;30.81;13.34;98956.63;5038134;28;20053;-66
2021/09/15 11:35:57;;;;;;;0.85;0.80;;;;;;;30.32;14.11;98939.22;5021563;28;20044;-67
2021/09/15 11:38:26;;;;;;;1.05;0.68;;;;;;;29.58;13.92;98951.91;5038274;28;20557;-67
2021/09/15 11:40:52;;;;;;;3.92;1.00;;;;;;;28.89;14.79;98964.69;5036777;28;20036;-66
2021/09/15 11:43:20;;;;;;;0.82;0.70;;;;;;;28.78;14.94;98949.50;5053680;28;20044;-67
2021/09/15 11:45:47;;;;;;;6.40;0.90;;;;;;;28.74;14.97;98957.47;5053395;28;20045;-66
2021/09/15 11:48:24;;;;;;;4.10;1.00;;;;;;;28.80;15.33;98966.44;5035493;28;20036;-65
2021/09/15 11:50:50;;;;;;;1.63;0.93;;;;;;;28.30;15.44;98958.75;5050205;28;20044;-66
2021/09/15 11:53:16;;;;;;;4.68;0.88;;;;;;;27.92;15.61;98944.13;5018191;28;20048;-66
2021/09/15 11:55:48;;;;;;;2.42;0.90;;;;;;;27.83;15.96;98959.47;5033760;28;20522;-66
2021/09/15 11:58:14;;;;;;;1.80;0.90;;;;;;;27.40;16.36;98952.16;5035115;28;20040;-66